createdAt,value
2019-03-26T00:04:11.804Z,7.02
2019-03-26T00:06:55.183Z,7.01
2019-03-26T00:09:45.986Z,7.09
2019-03-26T00:12:29.043Z,7.03
2019-03-26T00:15:19.904Z,6.99
2019-03-26T00:18:02.772Z,6.94
2019-03-26T00:20:53.652Z,6.90
2019-03-26T00:23:37.134Z,6.91
2019-03-26T00:26:28.056Z,6.90
2019-03-26T00:29:31.211Z,6.92
2019-03-26T00:32:23.648Z,6.95
2019-03-26T00:35:27.252Z,6.89
2019-03-26T00:38:18.167Z,6.83
2019-03-26T00:41:01.822Z,6.84
2019-03-26T00:43:52.744Z,6.92
2019-03-26T00:46:35.953Z,6.96
2019-03-26T00:49:26.885Z,6.84
2019-03-26T00:52:29.622Z,6.81
2019-03-26T00:55:22.946Z,6.86
2019-03-26T00:58:25.241Z,6.80
2019-03-26T01:01:16.183Z,6.81
2019-03-26T01:03:58.996Z,6.87
2019-03-26T01:06:49.888Z,6.82
2019-03-26T01:09:32.738Z,6.85
2019-03-26T01:12:23.628Z,6.81
2019-03-26T01:15:07.267Z,6.83
2019-03-26T01:17:58.178Z,6.86
2019-03-26T01:20:41.812Z,6.81
2019-03-26T01:23:32.759Z,6.76
2019-03-26T01:26:35.454Z,6.77
2019-03-26T01:29:26.381Z,6.74
2019-03-26T01:32:09.243Z,6.78
2019-03-26T01:35:00.327Z,6.78
2019-03-26T01:37:43.186Z,6.82
2019-03-26T01:40:34.151Z,6.78
2019-03-26T01:43:17.550Z,6.77
2019-03-26T01:46:08.476Z,6.79
2019-03-26T01:48:52.039Z,6.80
2019-03-26T01:51:42.943Z,6.77
2019-03-26T01:54:25.991Z,6.70
2019-03-26T01:57:16.931Z,6.63
2019-03-26T02:00:08.211Z,6.66
2019-03-26T02:02:51.277Z,6.65
2019-03-26T02:05:42.206Z,6.64
2019-03-26T02:08:25.795Z,6.60
2019-03-26T02:11:16.713Z,6.61
2019-03-26T02:13:59.957Z,6.60
2019-03-26T02:16:50.922Z,6.51
2019-03-26T02:19:34.589Z,6.60
2019-03-26T02:22:25.515Z,6.61
2019-03-26T02:25:08.508Z,6.59
2019-03-26T02:27:59.476Z,6.54
2019-03-26T02:30:42.584Z,6.54
2019-03-26T02:33:33.493Z,6.46
2019-03-26T02:36:16.313Z,6.42
2019-03-26T02:39:08.646Z,6.37
2019-03-26T02:41:52.079Z,6.39
2019-03-26T02:44:43.001Z,6.42
2019-03-26T02:47:26.617Z,6.39
2019-03-26T02:50:17.527Z,6.41
2019-03-26T02:53:01.278Z,6.43
2019-03-26T02:55:52.217Z,6.47
2019-03-26T02:58:35.575Z,6.46
2019-03-26T03:01:18.523Z,6.47
2019-03-26T03:04:09.426Z,6.46
2019-03-26T03:06:52.370Z,6.48
2019-03-26T03:09:43.301Z,6.52
2019-03-26T03:12:26.742Z,6.56
2019-03-26T03:15:17.685Z,6.49
2019-03-26T03:18:21.060Z,6.50
2019-03-26T03:21:12.007Z,6.54
2019-03-26T03:23:55.230Z,6.52
2019-03-26T03:26:46.165Z,6.51
2019-03-26T03:29:29.489Z,6.45
2019-03-26T03:32:20.452Z,6.49
2019-03-26T03:35:03.872Z,6.47
2019-03-26T03:37:54.795Z,6.41
2019-03-26T03:40:37.848Z,6.40
2019-03-26T03:43:28.813Z,6.38
2019-03-26T03:46:12.138Z,6.39
2019-03-26T03:49:03.394Z,6.42
2019-03-26T03:51:47.023Z,6.40
2019-03-26T03:55:16.981Z,6.40
2019-03-26T03:58:00.625Z,6.51
2019-03-26T04:00:51.549Z,6.41
2019-03-26T04:03:34.934Z,6.43
2019-03-26T04:06:25.845Z,6.43
2019-03-26T04:09:08.750Z,6.47
2019-03-26T04:11:59.691Z,6.42
2019-03-26T04:14:42.578Z,6.41
2019-03-26T04:17:33.478Z,6.39
2019-03-26T04:20:16.449Z,6.42
2019-03-26T04:23:07.372Z,6.44
2019-03-26T04:25:51.159Z,6.46
2019-03-26T04:28:42.048Z,6.43
2019-03-26T04:31:25.455Z,6.34
2019-03-26T04:34:16.360Z,6.31
2019-03-26T04:37:00.143Z,6.31
2019-03-26T04:39:51.056Z,6.33
2019-03-26T04:42:34.590Z,6.32
2019-03-26T04:45:25.522Z,6.23
2019-03-26T04:48:08.667Z,6.24
2019-03-26T04:50:59.543Z,6.24
2019-03-26T04:53:43.024Z,6.28
2019-03-26T04:56:33.903Z,6.32
2019-03-26T04:59:16.749Z,6.30
2019-03-26T05:02:00.111Z,6.22
2019-03-26T05:04:51.051Z,6.23
2019-03-26T05:07:34.356Z,6.24
2019-03-26T05:10:25.266Z,6.24
2019-03-26T05:13:08.705Z,6.26
2019-03-26T05:15:59.610Z,6.29
2019-03-26T05:18:43.019Z,6.32
2019-03-26T05:21:33.928Z,6.32
2019-03-26T05:24:17.657Z,6.33
2019-03-26T05:27:08.569Z,6.38
2019-03-26T05:29:52.036Z,6.38
2019-03-26T05:32:43.013Z,6.40
2019-03-26T05:35:25.782Z,6.42
2019-03-26T05:38:16.723Z,6.43
2019-03-26T05:40:59.676Z,6.44
2019-03-26T05:43:50.600Z,6.46
2019-03-26T05:46:34.849Z,6.48
2019-03-26T05:49:25.762Z,6.48
2019-03-26T05:52:16.703Z,6.50
2019-03-26T05:55:19.799Z,6.53
2019-03-26T05:58:10.659Z,6.59
2019-03-26T06:00:53.585Z,6.59
2019-03-26T06:03:37.212Z,6.51
2019-03-26T06:06:28.110Z,6.49
2019-03-26T06:09:11.578Z,6.48
2019-03-26T06:12:02.426Z,6.50
2019-03-26T06:14:45.392Z,6.51
2019-03-26T06:17:29.005Z,6.54
2019-03-26T06:20:19.975Z,6.58
2019-03-26T06:23:10.846Z,6.58
2019-03-26T06:26:13.845Z,6.69
2019-03-26T06:29:04.724Z,6.64
2019-03-26T06:31:48.390Z,6.59
2019-03-26T06:34:39.287Z,6.60
2019-03-26T06:37:22.226Z,6.58
2019-03-26T06:40:13.461Z,6.59
2019-03-26T06:42:56.377Z,6.60
2019-03-26T06:45:47.256Z,6.62
2019-03-26T06:48:30.701Z,6.74
2019-03-26T06:51:21.628Z,6.69
2019-03-26T06:54:05.396Z,6.75
2019-03-26T06:56:56.326Z,6.69
2019-03-26T06:59:39.933Z,6.79
2019-03-26T07:02:30.983Z,6.89
2019-03-26T07:05:21.879Z,6.92
2019-03-26T07:08:05.495Z,6.93
2019-03-26T07:10:56.372Z,6.95
2019-03-26T07:13:40.084Z,6.97
2019-03-26T07:16:31.002Z,7.06
2019-03-26T07:19:14.740Z,7.15
2019-03-26T07:22:05.592Z,7.38
2019-03-26T07:24:49.107Z,7.62
2019-03-26T07:27:40.165Z,7.78
2019-03-26T07:30:42.253Z,7.95
2019-03-26T07:33:33.151Z,8.13
2019-03-26T07:36:17.981Z,8.28
2019-03-26T07:39:09.072Z,8.35
2019-03-26T07:41:52.282Z,8.39
2019-03-26T07:44:45.458Z,8.39
2019-03-26T07:47:48.136Z,8.35
2019-03-26T07:50:39.061Z,8.31
2019-03-26T07:53:21.909Z,8.20
2019-03-26T07:56:12.819Z,8.13
2019-03-26T07:58:55.667Z,7.99
2019-03-26T08:01:46.606Z,7.76
2019-03-26T08:04:29.815Z,7.62
2019-03-26T08:07:20.790Z,7.58
2019-03-26T08:10:04.531Z,7.43
2019-03-26T08:12:55.464Z,7.49
2019-03-26T08:15:38.315Z,7.44
2019-03-26T08:18:29.247Z,7.42
2019-03-26T08:21:12.155Z,7.58
2019-03-26T08:24:03.033Z,7.79
2019-03-26T08:26:46.784Z,7.78
2019-03-26T08:29:37.659Z,7.96
2019-03-26T08:32:20.826Z,8.14
2019-03-26T08:35:11.729Z,8.34
2019-03-26T08:37:55.437Z,8.45
2019-03-26T08:40:46.508Z,8.57
2019-03-26T08:43:29.919Z,8.69
2019-03-26T08:46:20.850Z,8.83
2019-03-26T08:49:05.355Z,8.99
2019-03-26T08:51:56.221Z,9.39
2019-03-26T08:54:39.204Z,9.72
2019-03-26T08:57:30.143Z,9.91
2019-03-26T09:00:13.536Z,9.95
2019-03-26T09:03:04.453Z,9.81
2019-03-26T09:05:47.386Z,9.64
2019-03-26T09:08:38.334Z,9.65
2019-03-26T09:11:21.819Z,9.67
2019-03-26T09:14:12.727Z,9.64
2019-03-26T09:16:56.458Z,9.60
2019-03-26T09:19:47.356Z,9.40
2019-03-26T09:22:30.458Z,9.27
2019-03-26T09:25:21.345Z,9.22
2019-03-26T09:28:04.465Z,9.23
2019-03-26T09:30:55.366Z,9.48
2019-03-26T09:33:38.903Z,9.88
2019-03-26T09:36:29.815Z,10.16
2019-03-26T09:39:13.406Z,10.35
2019-03-26T09:42:04.321Z,10.44
2019-03-26T09:44:47.469Z,10.43
2019-03-26T09:47:38.440Z,10.21
2019-03-26T09:50:42.064Z,9.98
2019-03-26T09:53:32.957Z,9.82
2019-03-26T09:56:28.325Z,9.83
2019-03-26T09:59:09.071Z,9.86
2019-03-26T10:01:52.716Z,9.89
2019-03-26T10:04:43.632Z,9.89
2019-03-26T10:07:26.925Z,9.87
2019-03-26T10:10:17.980Z,9.93
2019-03-26T10:13:00.826Z,10.04
2019-03-26T10:15:51.737Z,10.12
2019-03-26T10:18:35.306Z,10.26
2019-03-26T10:21:26.233Z,10.36
2019-03-26T10:24:09.557Z,10.47
2019-03-26T10:27:00.516Z,10.57
2019-03-26T10:29:43.784Z,10.73
2019-03-26T10:32:34.731Z,10.92
2019-03-26T10:35:38.055Z,11.11
2019-03-26T10:38:29.002Z,11.50
2019-03-26T10:41:19.933Z,11.80
2019-03-26T10:44:10.876Z,11.98
2019-03-26T10:47:01.814Z,11.73
2019-03-26T10:49:52.850Z,11.73
2019-03-26T10:52:35.971Z,11.66
2019-03-26T10:55:26.898Z,11.45
2019-03-26T10:58:10.540Z,11.32
2019-03-26T11:01:01.506Z,11.14
2019-03-26T11:03:44.802Z,11.07
2019-03-26T11:06:28.131Z,11.05
2019-03-26T11:09:25.362Z,11.09
2019-03-26T11:12:24.193Z,10.98
2019-03-26T11:15:15.318Z,10.90
2019-03-26T11:18:18.305Z,10.81
2019-03-26T11:21:09.215Z,10.60
2019-03-26T11:23:52.002Z,10.40
2019-03-26T11:26:42.960Z,10.28
2019-03-26T11:29:26.194Z,10.26
2019-03-26T11:32:17.134Z,10.20
2019-03-26T11:35:00.909Z,10.48
2019-03-26T11:37:51.820Z,10.88
2019-03-26T11:40:34.687Z,11.15
2019-03-26T11:43:25.616Z,11.39
2019-03-26T11:46:16.575Z,11.49
2019-03-26T11:49:00.199Z,11.75
2019-03-26T11:51:51.119Z,11.84
2019-03-26T11:54:34.934Z,11.63
2019-03-26T11:57:18.403Z,11.30
2019-03-26T12:00:48.693Z,11.18
2019-03-26T12:03:32.470Z,10.97
2019-03-26T12:06:23.441Z,10.68
2019-03-26T12:09:07.589Z,10.62
2019-03-26T12:11:58.497Z,10.60
2019-03-26T12:14:42.212Z,10.58
2019-03-26T12:17:33.163Z,10.63
2019-03-26T12:20:16.887Z,10.58
2019-03-26T12:23:07.844Z,10.47
2019-03-26T12:25:51.271Z,10.57
2019-03-26T12:28:42.190Z,10.60
2019-03-26T12:31:45.802Z,10.46
2019-03-26T12:34:36.789Z,10.17
2019-03-26T12:37:19.989Z,10.15
2019-03-26T12:40:11.150Z,10.02
2019-03-26T12:42:54.508Z,9.95
2019-03-26T12:45:37.744Z,9.90
2019-03-26T12:48:28.673Z,9.86
2019-03-26T12:51:12.225Z,9.80
2019-03-26T12:54:03.136Z,9.75
2019-03-26T12:56:46.587Z,9.56
2019-03-26T12:59:37.500Z,9.35
2019-03-26T13:02:21.041Z,9.20
2019-03-26T13:05:12.228Z,9.19
2019-03-26T13:08:03.147Z,9.33
2019-03-26T13:10:53.598Z,9.52
2019-03-26T13:13:38.723Z,9.68
2019-03-26T13:16:21.455Z,9.87
2019-03-26T13:19:51.380Z,9.94
2019-03-26T13:22:34.880Z,10.01
2019-03-26T13:25:25.843Z,10.05
2019-03-26T13:28:08.861Z,10.19
2019-03-26T13:30:59.763Z,10.26
2019-03-26T13:33:42.858Z,10.38
2019-03-26T13:36:33.798Z,10.49
2019-03-26T13:39:16.849Z,10.50
2019-03-26T13:42:07.809Z,10.53
2019-03-26T13:44:50.895Z,10.50
2019-03-26T13:47:34.123Z,10.46
2019-03-26T13:50:25.084Z,10.43
2019-03-26T13:53:16.008Z,10.36
2019-03-26T13:55:59.614Z,10.31
2019-03-26T13:58:50.510Z,10.12
2019-03-26T14:01:33.348Z,10.03
2019-03-26T14:04:24.276Z,9.94
2019-03-26T14:07:07.877Z,9.91
2019-03-26T14:09:58.800Z,9.87
2019-03-26T14:12:49.718Z,9.83
2019-03-26T14:15:32.908Z,9.78
2019-03-26T14:18:23.832Z,9.75
2019-03-26T14:21:14.759Z,9.67
2019-03-26T14:24:05.684Z,9.75
2019-03-26T14:26:56.615Z,9.55
2019-03-26T14:29:39.803Z,9.51
2019-03-26T14:32:30.697Z,9.50
2019-03-26T14:35:21.688Z,9.46
2019-03-26T14:38:05.183Z,9.53
2019-03-26T14:41:35.106Z,9.49
2019-03-26T14:44:17.969Z,9.48
2019-03-26T14:47:01.741Z,9.47
2019-03-26T14:49:52.780Z,9.51
2019-03-26T14:52:35.857Z,9.48
2019-03-26T14:55:26.759Z,9.39
2019-03-26T14:58:10.486Z,9.28
2019-03-26T15:01:01.445Z,9.21
2019-03-26T15:03:44.979Z,9.24
2019-03-26T15:06:35.937Z,9.28
2019-03-26T15:09:18.845Z,9.33
2019-03-26T15:12:09.793Z,9.31
2019-03-26T15:14:53.382Z,9.34
2019-03-26T15:17:44.300Z,9.23
2019-03-26T15:20:27.698Z,9.18
2019-03-26T15:23:18.587Z,9.20
2019-03-26T15:26:02.355Z,9.30
2019-03-26T15:28:53.244Z,9.39
2019-03-26T15:31:36.862Z,9.50
2019-03-26T15:34:36.021Z,9.50
2019-03-26T15:37:32.541Z,9.63
2019-03-26T15:40:23.476Z,9.55
2019-03-26T15:43:06.340Z,9.63
2019-03-26T15:46:00.555Z,9.66
2019-03-26T15:48:44.309Z,9.73
2019-03-26T15:51:35.311Z,9.75
2019-03-26T15:54:18.410Z,9.80
2019-03-26T15:57:09.333Z,9.90
2019-03-26T15:59:52.905Z,9.94
2019-03-26T16:02:43.839Z,9.91
2019-03-26T16:05:27.528Z,9.97
2019-03-26T16:08:18.470Z,9.97
2019-03-26T16:11:02.186Z,9.91
2019-03-26T16:13:45.694Z,9.88
2019-03-26T16:16:36.611Z,9.78
2019-03-26T16:19:32.811Z,9.76
2019-03-26T16:22:32.411Z,9.72
2019-03-26T16:25:23.350Z,9.63
2019-03-26T16:28:06.603Z,9.65
2019-03-26T16:30:57.518Z,9.59
2019-03-26T16:33:41.300Z,9.57
2019-03-26T16:36:59.336Z,9.55
2019-03-26T16:39:55.331Z,9.46
2019-03-26T16:42:46.209Z,9.42
2019-03-26T16:45:29.488Z,9.36
2019-03-26T16:48:20.398Z,9.32
2019-03-26T16:51:03.302Z,9.32
2019-03-26T16:53:54.172Z,9.28
2019-03-26T16:56:37.758Z,9.23
2019-03-26T16:59:28.622Z,9.22
2019-03-26T17:02:11.473Z,9.21
2019-03-26T17:05:02.378Z,9.20
2019-03-26T17:07:53.267Z,9.18
2019-03-26T17:10:44.175Z,9.16
2019-03-26T17:13:35.135Z,9.16
2019-03-26T17:16:18.239Z,9.13
2019-03-26T17:19:09.152Z,9.14
2019-03-26T17:21:52.428Z,9.11
2019-03-26T17:24:43.322Z,9.04
2019-03-26T17:27:29.139Z,9.10
2019-03-26T17:30:19.433Z,9.02
2019-03-26T17:33:02.738Z,8.96
2019-03-26T17:35:53.630Z,8.91
2019-03-26T17:38:37.310Z,8.94
2019-03-26T17:41:28.182Z,8.94
2019-03-26T17:44:11.873Z,8.91
2019-03-26T17:47:02.784Z,8.89
2019-03-26T17:49:45.888Z,8.87
2019-03-26T17:52:36.790Z,8.84
2019-03-26T17:55:20.285Z,8.85
2019-03-26T17:58:11.259Z,8.85
2019-03-26T18:00:54.692Z,8.84
2019-03-26T18:03:45.676Z,8.86
2019-03-26T18:06:36.559Z,8.83
2019-03-26T18:09:27.452Z,8.86
2019-03-26T18:12:10.358Z,8.84
2019-03-26T18:15:01.229Z,8.82
2019-03-26T18:17:44.342Z,8.80
2019-03-26T18:20:35.209Z,8.80
2019-03-26T18:23:19.011Z,8.79
2019-03-26T18:26:09.975Z,8.79
2019-03-26T18:28:55.418Z,8.77
2019-03-26T18:31:46.279Z,8.76
2019-03-26T18:34:29.595Z,8.78
2019-03-26T18:37:20.512Z,8.76
2019-03-26T18:40:03.499Z,8.75
2019-03-26T18:42:54.459Z,8.75
2019-03-26T18:45:38.054Z,8.72
2019-03-26T18:48:28.954Z,8.70
2019-03-26T18:51:11.974Z,8.70
2019-03-26T18:54:02.929Z,8.70
2019-03-26T18:56:45.700Z,8.69
2019-03-26T18:59:36.590Z,8.70
2019-03-26T19:02:27.517Z,8.71
2019-03-26T19:05:10.414Z,8.71
2019-03-26T19:08:01.409Z,8.71
2019-03-26T19:10:44.439Z,8.71
2019-03-26T19:13:27.711Z,8.73
2019-03-26T19:16:18.646Z,8.73
2019-03-26T19:19:21.937Z,8.76
2019-03-26T19:22:12.864Z,8.72
2019-03-26T19:24:55.695Z,8.71
2019-03-26T19:27:46.657Z,8.72
2019-03-26T19:30:29.602Z,8.71
2019-03-26T19:33:20.520Z,8.69
2019-03-26T19:36:04.310Z,8.70
2019-03-26T19:38:55.248Z,8.68
2019-03-26T19:41:38.724Z,8.71
2019-03-26T19:44:29.651Z,8.69
2019-03-26T19:47:12.982Z,8.71
2019-03-26T19:50:03.907Z,8.73
2019-03-26T19:52:47.466Z,8.70
2019-03-26T19:55:38.364Z,8.68
2019-03-26T19:58:21.649Z,8.68
2019-03-26T20:01:12.577Z,8.70
2019-03-26T20:03:55.525Z,8.67
2019-03-26T20:06:46.499Z,8.67
2019-03-26T20:09:29.747Z,8.65
2019-03-26T20:12:20.676Z,8.66
2019-03-26T20:15:04.097Z,8.61
2019-03-26T20:17:55.091Z,8.60
2019-03-26T20:20:38.883Z,8.63
2019-03-26T20:23:29.896Z,8.62
2019-03-26T20:26:12.979Z,8.64
2019-03-26T20:29:03.968Z,8.63
2019-03-26T20:31:47.021Z,8.64
2019-03-26T20:34:37.979Z,8.63
2019-03-26T20:37:21.786Z,8.63
2019-03-26T20:40:51.817Z,8.65
2019-03-26T20:43:37.628Z,8.62
2019-03-26T20:46:27.813Z,8.58
2019-03-26T20:49:18.716Z,8.61
2019-03-26T20:52:01.801Z,8.60
2019-03-26T20:54:52.714Z,8.59
2019-03-26T20:57:35.728Z,8.58
2019-03-26T21:01:13.380Z,8.60
2019-03-26T21:03:56.624Z,8.59
2019-03-26T21:06:47.596Z,8.60
2019-03-26T21:09:38.533Z,8.56
2019-03-26T21:12:29.467Z,8.56
2019-03-26T21:15:12.996Z,8.52
2019-03-26T21:18:04.030Z,8.54
2019-03-26T21:20:46.824Z,8.53
2019-03-26T21:23:31.379Z,8.53
2019-03-26T21:26:22.303Z,8.51
2019-03-26T21:29:13.216Z,8.52
2019-03-26T21:31:56.275Z,8.48
2019-03-26T21:34:47.217Z,8.46
2019-03-26T21:37:30.482Z,8.47
2019-03-26T21:40:21.495Z,8.44
2019-03-26T21:43:04.919Z,8.42
2019-03-26T21:45:55.866Z,8.41
2019-03-26T21:48:38.882Z,8.39
2019-03-26T21:51:10.920Z,8.40
2019-03-26T21:53:54.305Z,8.41
2019-03-26T21:56:45.217Z,8.39
2019-03-26T21:59:28.877Z,8.40
2019-03-26T22:02:19.780Z,8.39
2019-03-26T22:05:02.951Z,8.40
2019-03-26T22:07:53.843Z,8.37
2019-03-26T22:10:37.396Z,8.36
2019-03-26T22:13:28.278Z,8.35
2019-03-26T22:16:11.951Z,8.34
2019-03-26T22:19:02.885Z,8.32
2019-03-26T22:21:45.764Z,8.32
2019-03-26T22:24:36.691Z,8.30
2019-03-26T22:27:20.041Z,8.28
2019-03-26T22:33:39.409Z,8.26
2019-03-26T22:36:30.316Z,8.24
2019-03-26T22:39:21.222Z,8.23
2019-03-26T22:42:04.255Z,8.22
2019-03-26T22:44:55.199Z,8.21
2019-03-26T22:47:38.394Z,8.19
2019-03-26T22:50:29.292Z,8.15
2019-03-26T22:53:12.855Z,8.14
2019-03-26T22:56:03.910Z,8.10
2019-03-26T22:58:46.749Z,8.08
2019-03-26T23:01:37.661Z,8.07
2019-03-26T23:04:20.579Z,8.05
2019-03-26T23:07:11.482Z,8.02
2019-03-26T23:09:54.640Z,7.97
2019-03-26T23:12:45.559Z,7.92
2019-03-26T23:15:29.315Z,7.90
2019-03-26T23:18:12.273Z,7.86
2019-03-26T23:21:03.180Z,7.81
2019-03-26T23:23:46.713Z,7.77
2019-03-26T23:26:37.618Z,7.74
2019-03-26T23:29:20.512Z,7.71
2019-03-26T23:32:11.476Z,7.69
2019-03-26T23:34:55.038Z,7.68
2019-03-26T23:37:45.994Z,7.64
2019-03-26T23:40:29.554Z,7.61
2019-03-26T23:43:20.432Z,7.59
2019-03-26T23:46:04.011Z,7.57
2019-03-26T23:48:54.937Z,7.58
2019-03-26T23:51:38.706Z,7.55
2019-03-26T23:54:29.668Z,7.51
2019-03-26T23:57:13.352Z,7.53
